sensor_id;sensor_type;location;lat;lon;timestamp;P1;durP1;ratioP1;P2;durP2;ratioP2
6077;SDS011;3067;49.470;10.394;2023-02-28T00:01:53;3.60;;;3.30;;
6077;SDS011;3067;49.470;10.394;2023-02-28T00:04:21;4.33;;;3.43;;
6077;SDS011;3067;49.470;10.394;2023-02-28T00:06:52;3.33;;;3.13;;
6077;SDS011;3067;49.470;10.394;2023-02-28T00:09:20;3.63;;;3.40;;
6077;SDS011;3067;49.470;10.394;2023-02-28T00:11:48;6.10;;;3.63;;
6077;SDS011;3067;49.470;10.394;2023-02-28T00:14:15;4.40;;;3.50;;
6077;SDS011;3067;49.470;10.394;2023-02-28T00:16:42;3.83;;;3.20;;
6077;SDS011;3067;49.470;10.394;2023-02-28T00:19:10;4.90;;;3.90;;
6077;SDS011;3067;49.470;10.394;2023-02-28T00:21:38;9.30;;;3.97;;
6077;SDS011;3067;49.470;10.394;2023-02-28T00:24:08;4.23;;;3.83;;
6077;SDS011;3067;49.470;10.394;2023-02-28T00:26:36;4.20;;;3.57;;
6077;SDS011;3067;49.470;10.394;2023-02-28T00:29:04;4.23;;;3.90;;
6077;SDS011;3067;49.470;10.394;2023-02-28T00:31:31;4.80;;;3.90;;
6077;SDS011;3067;49.470;10.394;2023-02-28T00:33:58;3.90;;;3.60;;
6077;SDS011;3067;49.470;10.394;2023-02-28T00:36:26;4.13;;;3.83;;
6077;SDS011;3067;49.470;10.394;2023-02-28T00:38:53;4.40;;;4.10;;
6077;SDS011;3067;49.470;10.394;2023-02-28T00:41:20;4.47;;;4.07;;
6077;SDS011;3067;49.470;10.394;2023-02-28T00:43:49;4.27;;;3.87;;
6077;SDS011;3067;49.470;10.394;2023-02-28T00:46:16;5.40;;;4.20;;
6077;SDS011;3067;49.470;10.394;2023-02-28T00:48:44;6.07;;;4.80;;
6077;SDS011;3067;49.470;10.394;2023-02-28T00:51:11;5.30;;;3.93;;
6077;SDS011;3067;49.470;10.394;2023-02-28T00:53:39;8.03;;;4.10;;
6077;SDS011;3067;49.470;10.394;2023-02-28T00:56:06;5.57;;;4.20;;
6077;SDS011;3067;49.470;10.394;2023-02-28T00:58:33;5.43;;;4.30;;
6077;SDS011;3067;49.470;10.394;2023-02-28T01:01:02;8.13;;;4.50;;
6077;SDS011;3067;49.470;10.394;2023-02-28T01:03:30;4.13;;;3.80;;
6077;SDS011;3067;49.470;10.394;2023-02-28T01:05:57;4.23;;;3.83;;
6077;SDS011;3067;49.470;10.394;2023-02-28T01:08:24;4.37;;;4.00;;
6077;SDS011;3067;49.470;10.394;2023-02-28T01:10:52;4.30;;;3.77;;
6077;SDS011;3067;49.470;10.394;2023-02-28T01:13:19;4.57;;;4.10;;
6077;SDS011;3067;49.470;10.394;2023-02-28T01:15:49;4.63;;;4.17;;
6077;SDS011;3067;49.470;10.394;2023-02-28T01:18:18;4.30;;;3.90;;
6077;SDS011;3067;49.470;10.394;2023-02-28T01:20:46;6.10;;;3.70;;
6077;SDS011;3067;49.470;10.394;2023-02-28T01:23:13;9.00;;;3.53;;
6077;SDS011;3067;49.470;10.394;2023-02-28T01:25:41;7.30;;;4.00;;
6077;SDS011;3067;49.470;10.394;2023-02-28T01:28:08;4.50;;;4.13;;
6077;SDS011;3067;49.470;10.394;2023-02-28T01:30:35;5.53;;;4.27;;
6077;SDS011;3067;49.470;10.394;2023-02-28T01:33:03;5.43;;;3.90;;
6077;SDS011;3067;49.470;10.394;2023-02-28T01:35:33;4.53;;;4.13;;
6077;SDS011;3067;49.470;10.394;2023-02-28T01:38:00;5.30;;;4.07;;
6077;SDS011;3067;49.470;10.394;2023-02-28T01:40:27;6.40;;;4.40;;
6077;SDS011;3067;49.470;10.394;2023-02-28T01:42:55;6.00;;;3.97;;
6077;SDS011;3067;49.470;10.394;2023-02-28T01:45:23;4.67;;;4.27;;
6077;SDS011;3067;49.470;10.394;2023-02-28T01:47:53;6.17;;;4.33;;
6077;SDS011;3067;49.470;10.394;2023-02-28T01:50:22;7.87;;;5.00;;
6077;SDS011;3067;49.470;10.394;2023-02-28T01:52:51;6.20;;;3.77;;
6077;SDS011;3067;49.470;10.394;2023-02-28T01:55:20;6.80;;;4.30;;
6077;SDS011;3067;49.470;10.394;2023-02-28T01:57:50;4.50;;;4.00;;
6077;SDS011;3067;49.470;10.394;2023-02-28T02:00:20;5.97;;;4.40;;
6077;SDS011;3067;49.470;10.394;2023-02-28T02:02:49;5.53;;;4.60;;
6077;SDS011;3067;49.470;10.394;2023-02-28T02:05:18;4.40;;;4.00;;
6077;SDS011;3067;49.470;10.394;2023-02-28T02:07:46;5.27;;;4.07;;
6077;SDS011;3067;49.470;10.394;2023-02-28T02:10:17;4.43;;;3.97;;
6077;SDS011;3067;49.470;10.394;2023-02-28T02:15:34;4.70;;;4.10;;
6077;SDS011;3067;49.470;10.394;2023-02-28T02:18:04;5.70;;;4.40;;
6077;SDS011;3067;49.470;10.394;2023-02-28T02:20:46;12.33;;;4.00;;
6077;SDS011;3067;49.470;10.394;2023-02-28T02:26:09;7.13;;;4.03;;
6077;SDS011;3067;49.470;10.394;2023-02-28T02:28:56;7.93;;;4.20;;
6077;SDS011;3067;49.470;10.394;2023-02-28T02:34:18;4.77;;;3.90;;
6077;SDS011;3067;49.470;10.394;2023-02-28T02:36:51;5.80;;;4.20;;
6077;SDS011;3067;49.470;10.394;2023-02-28T02:39:22;4.33;;;4.03;;
6077;SDS011;3067;49.470;10.394;2023-02-28T02:41:54;6.10;;;3.97;;
6077;SDS011;3067;49.470;10.394;2023-02-28T02:44:24;4.80;;;4.10;;
6077;SDS011;3067;49.470;10.394;2023-02-28T02:46:53;4.50;;;4.10;;
6077;SDS011;3067;49.470;10.394;2023-02-28T02:49:24;4.20;;;3.63;;
6077;SDS011;3067;49.470;10.394;2023-02-28T02:51:53;6.03;;;4.20;;
6077;SDS011;3067;49.470;10.394;2023-02-28T02:54:22;4.50;;;3.70;;
6077;SDS011;3067;49.470;10.394;2023-02-28T02:56:54;4.80;;;4.30;;
6077;SDS011;3067;49.470;10.394;2023-02-28T02:59:22;4.30;;;3.80;;
6077;SDS011;3067;49.470;10.394;2023-02-28T03:01:50;5.17;;;3.70;;
6077;SDS011;3067;49.470;10.394;2023-02-28T03:04:20;5.03;;;3.33;;
6077;SDS011;3067;49.470;10.394;2023-02-28T03:06:50;6.13;;;4.33;;
6077;SDS011;3067;49.470;10.394;2023-02-28T03:09:19;4.20;;;3.83;;
6077;SDS011;3067;49.470;10.394;2023-02-28T03:11:47;5.30;;;4.50;;
6077;SDS011;3067;49.470;10.394;2023-02-28T03:14:18;3.93;;;3.60;;
6077;SDS011;3067;49.470;10.394;2023-02-28T03:19:34;4.20;;;3.80;;
6077;SDS011;3067;49.470;10.394;2023-02-28T03:22:12;4.80;;;3.87;;
6077;SDS011;3067;49.470;10.394;2023-02-28T03:24:43;4.17;;;3.77;;
6077;SDS011;3067;49.470;10.394;2023-02-28T03:27:11;4.40;;;3.90;;
6077;SDS011;3067;49.470;10.394;2023-02-28T03:29:43;9.20;;;4.27;;
6077;SDS011;3067;49.470;10.394;2023-02-28T03:32:13;5.97;;;3.87;;
6077;SDS011;3067;49.470;10.394;2023-02-28T03:34:47;6.77;;;4.00;;
6077;SDS011;3067;49.470;10.394;2023-02-28T03:37:19;3.73;;;3.20;;
6077;SDS011;3067;49.470;10.394;2023-02-28T03:39:51;4.60;;;4.20;;
6077;SDS011;3067;49.470;10.394;2023-02-28T03:42:20;4.37;;;3.90;;
6077;SDS011;3067;49.470;10.394;2023-02-28T03:44:50;4.13;;;3.83;;
6077;SDS011;3067;49.470;10.394;2023-02-28T03:47:20;4.67;;;4.07;;
6077;SDS011;3067;49.470;10.394;2023-02-28T03:49:49;4.40;;;4.00;;
6077;SDS011;3067;49.470;10.394;2023-02-28T03:52:19;6.00;;;3.90;;
6077;SDS011;3067;49.470;10.394;2023-02-28T03:54:50;4.30;;;3.90;;
6077;SDS011;3067;49.470;10.394;2023-02-28T03:57:20;7.03;;;4.50;;
6077;SDS011;3067;49.470;10.394;2023-02-28T03:59:50;4.20;;;3.80;;
6077;SDS011;3067;49.470;10.394;2023-02-28T04:02:21;4.13;;;3.50;;
6077;SDS011;3067;49.470;10.394;2023-02-28T04:04:48;6.30;;;4.10;;
6077;SDS011;3067;49.470;10.394;2023-02-28T04:07:16;5.20;;;3.57;;
6077;SDS011;3067;49.470;10.394;2023-02-28T04:09:45;4.77;;;4.10;;
6077;SDS011;3067;49.470;10.394;2023-02-28T04:12:12;3.97;;;3.67;;
6077;SDS011;3067;49.470;10.394;2023-02-28T04:14:40;5.87;;;3.70;;
6077;SDS011;3067;49.470;10.394;2023-02-28T04:17:07;4.97;;;3.93;;
6077;SDS011;3067;49.470;10.394;2023-02-28T04:19:34;5.20;;;4.17;;
6077;SDS011;3067;49.470;10.394;2023-02-28T04:22:02;5.03;;;4.30;;
6077;SDS011;3067;49.470;10.394;2023-02-28T04:24:29;5.30;;;3.67;;
6077;SDS011;3067;49.470;10.394;2023-02-28T04:26:58;6.27;;;4.17;;
6077;SDS011;3067;49.470;10.394;2023-02-28T04:29:26;4.33;;;3.77;;
6077;SDS011;3067;49.470;10.394;2023-02-28T04:31:54;4.70;;;3.53;;
6077;SDS011;3067;49.470;10.394;2023-02-28T04:34:22;4.60;;;3.80;;
6077;SDS011;3067;49.470;10.394;2023-02-28T04:36:50;5.53;;;3.80;;
6077;SDS011;3067;49.470;10.394;2023-02-28T04:39:19;4.23;;;3.90;;
6077;SDS011;3067;49.470;10.394;2023-02-28T04:41:47;4.60;;;4.00;;
6077;SDS011;3067;49.470;10.394;2023-02-28T04:44:15;6.53;;;4.67;;
6077;SDS011;3067;49.470;10.394;2023-02-28T04:46:43;6.53;;;4.40;;
6077;SDS011;3067;49.470;10.394;2023-02-28T04:49:11;5.20;;;4.27;;
6077;SDS011;3067;49.470;10.394;2023-02-28T04:51:39;5.33;;;3.97;;
6077;SDS011;3067;49.470;10.394;2023-02-28T04:54:06;6.10;;;4.00;;
6077;SDS011;3067;49.470;10.394;2023-02-28T04:56:33;6.43;;;4.10;;
6077;SDS011;3067;49.470;10.394;2023-02-28T04:59:01;4.50;;;4.10;;
6077;SDS011;3067;49.470;10.394;2023-02-28T05:01:31;4.80;;;4.30;;
6077;SDS011;3067;49.470;10.394;2023-02-28T05:03:58;4.30;;;3.90;;
6077;SDS011;3067;49.470;10.394;2023-02-28T05:06:27;6.10;;;4.30;;
6077;SDS011;3067;49.470;10.394;2023-02-28T05:08:55;4.17;;;3.77;;
6077;SDS011;3067;49.470;10.394;2023-02-28T05:11:23;4.80;;;4.30;;
6077;SDS011;3067;49.470;10.394;2023-02-28T05:13:51;4.67;;;4.27;;
6077;SDS011;3067;49.470;10.394;2023-02-28T05:16:19;6.40;;;4.60;;
6077;SDS011;3067;49.470;10.394;2023-02-28T05:18:48;5.13;;;4.60;;
6077;SDS011;3067;49.470;10.394;2023-02-28T05:21:21;4.73;;;3.40;;
6077;SDS011;3067;49.470;10.394;2023-02-28T05:23:50;5.23;;;4.60;;
6077;SDS011;3067;49.470;10.394;2023-02-28T05:26:18;5.27;;;3.80;;
6077;SDS011;3067;49.470;10.394;2023-02-28T05:28:45;5.40;;;3.97;;
6077;SDS011;3067;49.470;10.394;2023-02-28T05:31:12;6.50;;;3.70;;
6077;SDS011;3067;49.470;10.394;2023-02-28T05:33:40;8.87;;;5.00;;
6077;SDS011;3067;49.470;10.394;2023-02-28T05:36:09;4.33;;;3.93;;
6077;SDS011;3067;49.470;10.394;2023-02-28T05:38:36;6.00;;;4.00;;
6077;SDS011;3067;49.470;10.394;2023-02-28T05:41:07;6.87;;;4.50;;
6077;SDS011;3067;49.470;10.394;2023-02-28T05:43:34;6.93;;;4.27;;
6077;SDS011;3067;49.470;10.394;2023-02-28T05:46:04;6.33;;;4.97;;
6077;SDS011;3067;49.470;10.394;2023-02-28T05:48:32;7.57;;;3.80;;
6077;SDS011;3067;49.470;10.394;2023-02-28T05:50:59;8.80;;;3.93;;
6077;SDS011;3067;49.470;10.394;2023-02-28T05:53:29;6.20;;;4.40;;
6077;SDS011;3067;49.470;10.394;2023-02-28T05:55:56;5.13;;;4.63;;
6077;SDS011;3067;49.470;10.394;2023-02-28T05:58:24;5.03;;;4.43;;
6077;SDS011;3067;49.470;10.394;2023-02-28T06:00:55;4.83;;;4.20;;
6077;SDS011;3067;49.470;10.394;2023-02-28T06:03:23;4.60;;;4.20;;
6077;SDS011;3067;49.470;10.394;2023-02-28T06:05:50;5.97;;;4.43;;
6077;SDS011;3067;49.470;10.394;2023-02-28T06:08:17;5.20;;;4.70;;
6077;SDS011;3067;49.470;10.394;2023-02-28T06:10:46;5.37;;;4.27;;
6077;SDS011;3067;49.470;10.394;2023-02-28T06:13:14;13.93;;;5.30;;
6077;SDS011;3067;49.470;10.394;2023-02-28T06:15:41;6.07;;;4.97;;
6077;SDS011;3067;49.470;10.394;2023-02-28T06:18:08;9.53;;;4.53;;
6077;SDS011;3067;49.470;10.394;2023-02-28T06:20:36;4.63;;;4.23;;
6077;SDS011;3067;49.470;10.394;2023-02-28T06:23:03;6.07;;;4.13;;
6077;SDS011;3067;49.470;10.394;2023-02-28T06:25:30;9.00;;;4.60;;
6077;SDS011;3067;49.470;10.394;2023-02-28T06:27:59;7.73;;;4.63;;
6077;SDS011;3067;49.470;10.394;2023-02-28T06:30:26;6.33;;;4.50;;
6077;SDS011;3067;49.470;10.394;2023-02-28T06:32:56;13.40;;;5.13;;
6077;SDS011;3067;49.470;10.394;2023-02-28T06:35:23;7.83;;;5.33;;
6077;SDS011;3067;49.470;10.394;2023-02-28T06:37:51;7.20;;;5.00;;
6077;SDS011;3067;49.470;10.394;2023-02-28T06:40:19;5.20;;;4.57;;
6077;SDS011;3067;49.470;10.394;2023-02-28T06:42:46;14.73;;;6.30;;
6077;SDS011;3067;49.470;10.394;2023-02-28T06:45:15;8.03;;;5.20;;
6077;SDS011;3067;49.470;10.394;2023-02-28T06:47:42;13.83;;;5.60;;
6077;SDS011;3067;49.470;10.394;2023-02-28T06:50:10;9.07;;;4.90;;
6077;SDS011;3067;49.470;10.394;2023-02-28T06:52:38;9.40;;;5.80;;
6077;SDS011;3067;49.470;10.394;2023-02-28T06:55:06;10.90;;;5.10;;
6077;SDS011;3067;49.470;10.394;2023-02-28T06:57:34;7.60;;;5.60;;
6077;SDS011;3067;49.470;10.394;2023-02-28T07:00:03;8.73;;;5.93;;
6077;SDS011;3067;49.470;10.394;2023-02-28T07:02:34;7.87;;;5.47;;
6077;SDS011;3067;49.470;10.394;2023-02-28T07:05:02;13.67;;;5.53;;
6077;SDS011;3067;49.470;10.394;2023-02-28T07:07:30;7.90;;;4.80;;
6077;SDS011;3067;49.470;10.394;2023-02-28T07:09:57;7.03;;;5.10;;
6077;SDS011;3067;49.470;10.394;2023-02-28T07:12:24;5.87;;;4.90;;
6077;SDS011;3067;49.470;10.394;2023-02-28T07:14:52;6.47;;;5.07;;
6077;SDS011;3067;49.470;10.394;2023-02-28T07:17:19;6.67;;;4.87;;
6077;SDS011;3067;49.470;10.394;2023-02-28T07:19:48;9.77;;;5.77;;
6077;SDS011;3067;49.470;10.394;2023-02-28T07:22:15;7.80;;;5.17;;
6077;SDS011;3067;49.470;10.394;2023-02-28T07:24:43;7.37;;;5.30;;
6077;SDS011;3067;49.470;10.394;2023-02-28T07:27:10;8.40;;;5.23;;
6077;SDS011;3067;49.470;10.394;2023-02-28T07:29:37;7.23;;;4.77;;
6077;SDS011;3067;49.470;10.394;2023-02-28T07:32:05;8.70;;;5.60;;
6077;SDS011;3067;49.470;10.394;2023-02-28T07:34:32;9.00;;;6.20;;
6077;SDS011;3067;49.470;10.394;2023-02-28T07:37:01;12.70;;;7.00;;
6077;SDS011;3067;49.470;10.394;2023-02-28T07:39:30;12.23;;;6.00;;
6077;SDS011;3067;49.470;10.394;2023-02-28T07:41:57;9.47;;;5.70;;
6077;SDS011;3067;49.470;10.394;2023-02-28T07:44:24;12.00;;;5.90;;
6077;SDS011;3067;49.470;10.394;2023-02-28T07:46:52;10.10;;;5.90;;
6077;SDS011;3067;49.470;10.394;2023-02-28T07:49:19;8.80;;;6.03;;
6077;SDS011;3067;49.470;10.394;2023-02-28T07:51:46;10.30;;;6.37;;
6077;SDS011;3067;49.470;10.394;2023-02-28T07:54:15;8.93;;;5.57;;
6077;SDS011;3067;49.470;10.394;2023-02-28T07:56:42;7.50;;;6.00;;
6077;SDS011;3067;49.470;10.394;2023-02-28T07:59:10;8.83;;;5.93;;
6077;SDS011;3067;49.470;10.394;2023-02-28T08:01:37;9.20;;;6.60;;
6077;SDS011;3067;49.470;10.394;2023-02-28T08:04:04;8.20;;;6.30;;
6077;SDS011;3067;49.470;10.394;2023-02-28T08:06:32;9.83;;;6.07;;
6077;SDS011;3067;49.470;10.394;2023-02-28T08:09:02;10.43;;;5.87;;
6077;SDS011;3067;49.470;10.394;2023-02-28T08:11:31;10.37;;;6.00;;
6077;SDS011;3067;49.470;10.394;2023-02-28T08:13:58;8.97;;;6.10;;
6077;SDS011;3067;49.470;10.394;2023-02-28T08:16:25;7.60;;;4.80;;
6077;SDS011;3067;49.470;10.394;2023-02-28T08:18:53;11.63;;;6.40;;
6077;SDS011;3067;49.470;10.394;2023-02-28T08:21:21;7.73;;;5.63;;
6077;SDS011;3067;49.470;10.394;2023-02-28T08:23:48;9.40;;;6.20;;
6077;SDS011;3067;49.470;10.394;2023-02-28T08:26:15;10.80;;;6.97;;
6077;SDS011;3067;49.470;10.394;2023-02-28T08:28:46;9.37;;;5.83;;
6077;SDS011;3067;49.470;10.394;2023-02-28T08:31:14;11.37;;;6.60;;
6077;SDS011;3067;49.470;10.394;2023-02-28T08:33:42;11.57;;;5.90;;
6077;SDS011;3067;49.470;10.394;2023-02-28T08:36:10;10.10;;;6.37;;
6077;SDS011;3067;49.470;10.394;2023-02-28T08:38:37;14.70;;;7.30;;
6077;SDS011;3067;49.470;10.394;2023-02-28T08:41:06;10.27;;;5.00;;
6077;SDS011;3067;49.470;10.394;2023-02-28T08:43:34;9.93;;;6.87;;
6077;SDS011;3067;49.470;10.394;2023-02-28T08:46:02;11.43;;;6.90;;
6077;SDS011;3067;49.470;10.394;2023-02-28T08:48:30;15.87;;;7.07;;
6077;SDS011;3067;49.470;10.394;2023-02-28T08:50:58;8.97;;;5.80;;
6077;SDS011;3067;49.470;10.394;2023-02-28T08:53:26;13.47;;;6.97;;
6077;SDS011;3067;49.470;10.394;2023-02-28T08:55:57;8.70;;;6.00;;
6077;SDS011;3067;49.470;10.394;2023-02-28T08:58:24;11.30;;;6.90;;
6077;SDS011;3067;49.470;10.394;2023-02-28T09:00:52;9.70;;;6.27;;
6077;SDS011;3067;49.470;10.394;2023-02-28T09:03:21;12.90;;;7.00;;
6077;SDS011;3067;49.470;10.394;2023-02-28T09:05:51;13.90;;;7.47;;
6077;SDS011;3067;49.470;10.394;2023-02-28T09:08:19;8.03;;;5.07;;
6077;SDS011;3067;49.470;10.394;2023-02-28T09:10:46;15.50;;;6.47;;
6077;SDS011;3067;49.470;10.394;2023-02-28T09:13:13;22.90;;;7.57;;
6077;SDS011;3067;49.470;10.394;2023-02-28T09:15:41;9.20;;;5.17;;
6077;SDS011;3067;49.470;10.394;2023-02-28T09:18:08;9.30;;;6.00;;
6077;SDS011;3067;49.470;10.394;2023-02-28T09:20:38;13.47;;;6.90;;
6077;SDS011;3067;49.470;10.394;2023-02-28T09:23:06;13.63;;;7.27;;
6077;SDS011;3067;49.470;10.394;2023-02-28T09:25:34;11.03;;;6.47;;
6077;SDS011;3067;49.470;10.394;2023-02-28T09:28:01;10.60;;;5.97;;
6077;SDS011;3067;49.470;10.394;2023-02-28T09:30:29;19.90;;;7.30;;
6077;SDS011;3067;49.470;10.394;2023-02-28T09:32:56;13.23;;;6.43;;
6077;SDS011;3067;49.470;10.394;2023-02-28T09:35:24;12.97;;;6.90;;
6077;SDS011;3067;49.470;10.394;2023-02-28T09:37:54;11.80;;;7.33;;
6077;SDS011;3067;49.470;10.394;2023-02-28T09:40:22;16.17;;;7.93;;
6077;SDS011;3067;49.470;10.394;2023-02-28T09:42:51;12.13;;;7.03;;
6077;SDS011;3067;49.470;10.394;2023-02-28T09:45:22;15.97;;;7.47;;
6077;SDS011;3067;49.470;10.394;2023-02-28T09:47:52;10.73;;;6.20;;
6077;SDS011;3067;49.470;10.394;2023-02-28T09:50:23;11.30;;;7.20;;
6077;SDS011;3067;49.470;10.394;2023-02-28T09:52:55;13.73;;;7.30;;
6077;SDS011;3067;49.470;10.394;2023-02-28T09:55:25;17.13;;;8.17;;
6077;SDS011;3067;49.470;10.394;2023-02-28T09:57:54;13.07;;;8.17;;
6077;SDS011;3067;49.470;10.394;2023-02-28T10:00:27;12.00;;;7.90;;
6077;SDS011;3067;49.470;10.394;2023-02-28T10:03:17;11.40;;;7.10;;
6077;SDS011;3067;49.470;10.394;2023-02-28T10:05:50;19.00;;;8.73;;
6077;SDS011;3067;49.470;10.394;2023-02-28T10:08:21;13.73;;;7.97;;
6077;SDS011;3067;49.470;10.394;2023-02-28T10:10:50;13.67;;;8.13;;
6077;SDS011;3067;49.470;10.394;2023-02-28T10:13:21;13.20;;;7.97;;
6077;SDS011;3067;49.470;10.394;2023-02-28T10:15:51;13.63;;;8.63;;
6077;SDS011;3067;49.470;10.394;2023-02-28T10:18:21;20.50;;;8.10;;
6077;SDS011;3067;49.470;10.394;2023-02-28T10:20:48;12.27;;;7.90;;
6077;SDS011;3067;49.470;10.394;2023-02-28T10:23:17;15.20;;;8.40;;
6077;SDS011;3067;49.470;10.394;2023-02-28T10:25:50;10.90;;;7.90;;
6077;SDS011;3067;49.470;10.394;2023-02-28T10:28:19;11.73;;;7.07;;
6077;SDS011;3067;49.470;10.394;2023-02-28T10:30:47;13.47;;;8.60;;
6077;SDS011;3067;49.470;10.394;2023-02-28T10:33:17;14.43;;;8.80;;
6077;SDS011;3067;49.470;10.394;2023-02-28T10:35:45;13.50;;;8.83;;
6077;SDS011;3067;49.470;10.394;2023-02-28T10:38:15;11.77;;;6.80;;
6077;SDS011;3067;49.470;10.394;2023-02-28T10:40:43;13.73;;;8.17;;
6077;SDS011;3067;49.470;10.394;2023-02-28T10:43:19;13.53;;;8.60;;
6077;SDS011;3067;49.470;10.394;2023-02-28T10:45:55;15.03;;;7.93;;
6077;SDS011;3067;49.470;10.394;2023-02-28T10:48:27;17.90;;;8.77;;
6077;SDS011;3067;49.470;10.394;2023-02-28T10:50:56;14.63;;;8.10;;
6077;SDS011;3067;49.470;10.394;2023-02-28T10:53:28;13.77;;;7.00;;
6077;SDS011;3067;49.470;10.394;2023-02-28T10:55:57;10.00;;;7.60;;
6077;SDS011;3067;49.470;10.394;2023-02-28T10:58:28;12.27;;;7.30;;
6077;SDS011;3067;49.470;10.394;2023-02-28T11:00:55;14.10;;;7.63;;
6077;SDS011;3067;49.470;10.394;2023-02-28T11:03:24;10.80;;;7.50;;
6077;SDS011;3067;49.470;10.394;2023-02-28T11:05:51;13.53;;;8.30;;
6077;SDS011;3067;49.470;10.394;2023-02-28T11:08:19;15.60;;;7.87;;
6077;SDS011;3067;49.470;10.394;2023-02-28T11:10:46;67.03;;;8.97;;
6077;SDS011;3067;49.470;10.394;2023-02-28T11:13:16;12.87;;;7.83;;
6077;SDS011;3067;49.470;10.394;2023-02-28T11:15:50;14.60;;;8.20;;
6077;SDS011;3067;49.470;10.394;2023-02-28T11:18:20;13.77;;;8.00;;
6077;SDS011;3067;49.470;10.394;2023-02-28T11:20:48;10.80;;;7.90;;
6077;SDS011;3067;49.470;10.394;2023-02-28T11:23:17;12.47;;;7.80;;
6077;SDS011;3067;49.470;10.394;2023-02-28T11:25:46;16.30;;;7.50;;
6077;SDS011;3067;49.470;10.394;2023-02-28T11:31:02;14.57;;;8.73;;
6077;SDS011;3067;49.470;10.394;2023-02-28T11:33:30;10.67;;;8.07;;
6077;SDS011;3067;49.470;10.394;2023-02-28T11:35:58;15.30;;;8.10;;
6077;SDS011;3067;49.470;10.394;2023-02-28T11:38:26;15.43;;;8.00;;
6077;SDS011;3067;49.470;10.394;2023-02-28T11:40:58;21.07;;;8.43;;
6077;SDS011;3067;49.470;10.394;2023-02-28T11:43:35;17.63;;;8.77;;
6077;SDS011;3067;49.470;10.394;2023-02-28T11:49:01;11.87;;;7.80;;
6077;SDS011;3067;49.470;10.394;2023-02-28T11:51:32;12.00;;;7.97;;
6077;SDS011;3067;49.470;10.394;2023-02-28T11:54:18;13.70;;;7.93;;
6077;SDS011;3067;49.470;10.394;2023-02-28T11:56:49;12.70;;;7.80;;
6077;SDS011;3067;49.470;10.394;2023-02-28T12:02:05;12.73;;;8.20;;
6077;SDS011;3067;49.470;10.394;2023-02-28T12:04:37;17.73;;;8.03;;
6077;SDS011;3067;49.470;10.394;2023-02-28T12:07:08;13.50;;;8.33;;
6077;SDS011;3067;49.470;10.394;2023-02-28T12:09:41;11.70;;;7.47;;
6077;SDS011;3067;49.470;10.394;2023-02-28T12:12:15;16.30;;;8.40;;
6077;SDS011;3067;49.470;10.394;2023-02-28T12:17:43;13.13;;;8.50;;
6077;SDS011;3067;49.470;10.394;2023-02-28T12:20:17;11.40;;;8.20;;
6077;SDS011;3067;49.470;10.394;2023-02-28T12:22:50;10.97;;;7.40;;
6077;SDS011;3067;49.470;10.394;2023-02-28T12:25:21;9.60;;;6.93;;
6077;SDS011;3067;49.470;10.394;2023-02-28T12:27:49;12.13;;;7.33;;
6077;SDS011;3067;49.470;10.394;2023-02-28T12:30:19;12.50;;;8.23;;
6077;SDS011;3067;49.470;10.394;2023-02-28T12:32:48;11.77;;;7.80;;
6077;SDS011;3067;49.470;10.394;2023-02-28T12:35:19;12.23;;;7.43;;
6077;SDS011;3067;49.470;10.394;2023-02-28T12:37:49;12.77;;;7.53;;
6077;SDS011;3067;49.470;10.394;2023-02-28T12:40:19;10.60;;;7.63;;
6077;SDS011;3067;49.470;10.394;2023-02-28T12:42:48;11.50;;;8.17;;
6077;SDS011;3067;49.470;10.394;2023-02-28T12:45:17;13.00;;;8.30;;
6077;SDS011;3067;49.470;10.394;2023-02-28T12:47:46;13.73;;;7.80;;
6077;SDS011;3067;49.470;10.394;2023-02-28T12:50:15;9.00;;;7.13;;
6077;SDS011;3067;49.470;10.394;2023-02-28T12:52:47;10.33;;;8.20;;
6077;SDS011;3067;49.470;10.394;2023-02-28T12:55:18;11.40;;;7.50;;
6077;SDS011;3067;49.470;10.394;2023-02-28T12:57:48;12.63;;;7.90;;
6077;SDS011;3067;49.470;10.394;2023-02-28T13:00:17;11.43;;;8.47;;
6077;SDS011;3067;49.470;10.394;2023-02-28T13:02:50;11.63;;;8.33;;
6077;SDS011;3067;49.470;10.394;2023-02-28T13:10:59;11.20;;;7.90;;
6077;SDS011;3067;49.470;10.394;2023-02-28T13:13:27;11.50;;;7.80;;
6077;SDS011;3067;49.470;10.394;2023-02-28T13:15:59;12.33;;;8.30;;
6077;SDS011;3067;49.470;10.394;2023-02-28T13:18:28;11.17;;;7.93;;
6077;SDS011;3067;49.470;10.394;2023-02-28T13:20:56;12.07;;;8.77;;
6077;SDS011;3067;49.470;10.394;2023-02-28T13:23:38;14.63;;;9.10;;
6077;SDS011;3067;49.470;10.394;2023-02-28T13:26:07;11.90;;;7.90;;
6077;SDS011;3067;49.470;10.394;2023-02-28T13:34:23;11.10;;;8.23;;
6077;SDS011;3067;49.470;10.394;2023-02-28T13:36:51;11.17;;;7.53;;
6077;SDS011;3067;49.470;10.394;2023-02-28T13:39:45;10.53;;;7.37;;
6077;SDS011;3067;49.470;10.394;2023-02-28T13:42:32;9.20;;;7.30;;
6077;SDS011;3067;49.470;10.394;2023-02-28T13:45:22;11.23;;;7.93;;
6077;SDS011;3067;49.470;10.394;2023-02-28T13:47:54;17.40;;;8.73;;
6077;SDS011;3067;49.470;10.394;2023-02-28T13:50:24;10.50;;;8.20;;
6077;SDS011;3067;49.470;10.394;2023-02-28T13:52:55;12.43;;;7.43;;
6077;SDS011;3067;49.470;10.394;2023-02-28T13:55:25;11.37;;;8.50;;
6077;SDS011;3067;49.470;10.394;2023-02-28T13:58:07;10.40;;;8.10;;
6077;SDS011;3067;49.470;10.394;2023-02-28T14:00:42;12.80;;;7.60;;
6077;SDS011;3067;49.470;10.394;2023-02-28T14:03:14;10.57;;;7.97;;
6077;SDS011;3067;49.470;10.394;2023-02-28T14:05:45;9.23;;;8.10;;
6077;SDS011;3067;49.470;10.394;2023-02-28T14:08:14;9.97;;;8.43;;
6077;SDS011;3067;49.470;10.394;2023-02-28T14:10:44;12.13;;;7.77;;
6077;SDS011;3067;49.470;10.394;2023-02-28T14:13:14;13.10;;;8.70;;
6077;SDS011;3067;49.470;10.394;2023-02-28T14:16:04;12.30;;;9.20;;
6077;SDS011;3067;49.470;10.394;2023-02-28T14:18:33;12.17;;;8.40;;
6077;SDS011;3067;49.470;10.394;2023-02-28T14:21:03;8.83;;;7.93;;
6077;SDS011;3067;49.470;10.394;2023-02-28T14:23:42;11.60;;;8.30;;
6077;SDS011;3067;49.470;10.394;2023-02-28T14:26:14;10.67;;;8.90;;
6077;SDS011;3067;49.470;10.394;2023-02-28T14:28:50;11.57;;;8.80;;
6077;SDS011;3067;49.470;10.394;2023-02-28T14:31:23;16.27;;;8.93;;
6077;SDS011;3067;49.470;10.394;2023-02-28T14:34:02;12.57;;;9.17;;
6077;SDS011;3067;49.470;10.394;2023-02-28T14:36:31;9.77;;;8.30;;
6077;SDS011;3067;49.470;10.394;2023-02-28T14:38:59;11.53;;;8.90;;
6077;SDS011;3067;49.470;10.394;2023-02-28T14:41:29;12.70;;;8.33;;
6077;SDS011;3067;49.470;10.394;2023-02-28T14:43:58;9.67;;;8.20;;
6077;SDS011;3067;49.470;10.394;2023-02-28T14:46:35;8.43;;;7.53;;
6077;SDS011;3067;49.470;10.394;2023-02-28T14:49:03;11.87;;;8.23;;
6077;SDS011;3067;49.470;10.394;2023-02-28T14:51:31;12.30;;;8.63;;
6077;SDS011;3067;49.470;10.394;2023-02-28T14:53:59;11.00;;;8.90;;
6077;SDS011;3067;49.470;10.394;2023-02-28T14:56:28;17.33;;;8.93;;
6077;SDS011;3067;49.470;10.394;2023-02-28T14:58:58;11.20;;;8.67;;
6077;SDS011;3067;49.470;10.394;2023-02-28T15:01:26;10.90;;;8.90;;
6077;SDS011;3067;49.470;10.394;2023-02-28T15:03:57;11.97;;;8.77;;
6077;SDS011;3067;49.470;10.394;2023-02-28T15:06:24;19.33;;;9.17;;
6077;SDS011;3067;49.470;10.394;2023-02-28T15:09:06;11.40;;;8.90;;
6077;SDS011;3067;49.470;10.394;2023-02-28T15:11:34;15.00;;;9.10;;
6077;SDS011;3067;49.470;10.394;2023-02-28T15:14:03;12.70;;;8.23;;
6077;SDS011;3067;49.470;10.394;2023-02-28T15:16:31;14.73;;;9.03;;
6077;SDS011;3067;49.470;10.394;2023-02-28T15:19:00;12.50;;;8.20;;
6077;SDS011;3067;49.470;10.394;2023-02-28T15:21:30;16.57;;;9.20;;
6077;SDS011;3067;49.470;10.394;2023-02-28T15:23:58;13.90;;;8.90;;
6077;SDS011;3067;49.470;10.394;2023-02-28T15:26:27;15.33;;;9.03;;
6077;SDS011;3067;49.470;10.394;2023-02-28T15:28:57;14.10;;;9.17;;
6077;SDS011;3067;49.470;10.394;2023-02-28T15:31:27;13.13;;;8.83;;
6077;SDS011;3067;49.470;10.394;2023-02-28T15:33:56;11.17;;;8.17;;
6077;SDS011;3067;49.470;10.394;2023-02-28T15:36:25;12.67;;;7.80;;
6077;SDS011;3067;49.470;10.394;2023-02-28T15:38:53;15.17;;;8.77;;
6077;SDS011;3067;49.470;10.394;2023-02-28T15:41:22;14.43;;;8.60;;
6077;SDS011;3067;49.470;10.394;2023-02-28T15:46:34;16.67;;;9.13;;